This is the latest recevied weather packets stored in our database for station/object N1JOV-7. If no packets are shown the sender has not sent any weather packets the latest 10 day(s).
| Time | Temp. | Humidity | Pressure | Rain* | Wind** | Luminosity | Snow |
|---|---|---|---|---|---|---|---|
| 1777306861 | 20° C | 46% | 1025.2 hPa | 0 mm | - | - | - |
| 1777306261 | 20° C | 45% | 1025.2 hPa | 0 mm | - | - | - |
| 1777305664 | 20.56° C | 45% | 1025.2 hPa | 0 mm | - | - | - |
| 1777305062 | 20.56° C | 44% | 1025.3 hPa | 0 mm | - | - | - |
| 1777304462 | 20° C | 45% | 1025.3 hPa | 0 mm | - | - | - |
| 1777303862 | 19.44° C | 45% | 1025.7 hPa | 0 mm | - | - | - |
| 1777303262 | 19.44° C | 46% | 1025.6 hPa | 0 mm | - | - | - |
| 1777302662 | 18.89° C | 47% | 1025.6 hPa | 0 mm | - | - | - |
| 1777302061 | 17.78° C | 48% | 1025.8 hPa | 0 mm | - | - | - |
| 1777301461 | 18.33° C | 47% | 1025.9 hPa | 0 mm | - | - | - |
| 1777300862 | 17.78° C | 47% | 1025.8 hPa | 0 mm | - | - | - |
| 1777300262 | 17.78° C | 48% | 1025.8 hPa | 0 mm | - | - | - |
| 1777299662 | 17.78° C | 48% | 1025.9 hPa | 0 mm | - | - | - |
| 1777299062 | 17.22° C | 49% | 1026.2 hPa | 0 mm | - | - | - |
| 1777298462 | 16.67° C | 49% | 1026 hPa | 0 mm | - | - | - |
| 1777297861 | 16.67° C | 50% | 1026 hPa | 0 mm | - | - | - |
| 1777297261 | 15.56° C | 52% | 1026.1 hPa | 0 mm | - | - | - |
| 1777296661 | 15.56° C | 53% | 1026 hPa | 0 mm | - | - | - |
| 1777296061 | 16.11° C | 55% | 1026.1 hPa | 0 mm | - | - | - |
| 1777295462 | 15° C | 58% | 1026 hPa | 0 mm | - | - | - |
| 1777294862 | 13.33° C | 61% | 1026.1 hPa | 0 mm | - | - | - |
| 1777294262 | 13.89° C | 61% | 1026 hPa | 0 mm | - | - | - |
| 1777293662 | 13.33° C | 64% | 1026 hPa | 0 mm | - | - | - |
| 1777293062 | 11.67° C | 68% | 1025.9 hPa | 0 mm | - | - | - |
| 1777292461 | 11.67° C | 70% | 1025.9 hPa | 0 mm | - | - | - |
* Rain latest hour (hover to see other rain measurements)
** Current wind speed in m/s (hover to see current wind gust speed)